sensor_id;sensor_type;location;lat;lon;timestamp;temperature;humidity
11848;DHT22;5983;49.966;8.052;2023-03-04T00:01:46;2.40;99.90
11848;DHT22;5983;49.966;8.052;2023-03-04T00:04:15;2.30;99.90
11848;DHT22;5983;49.966;8.052;2023-03-04T00:06:43;2.30;99.90
11848;DHT22;5983;49.966;8.052;2023-03-04T00:09:11;2.30;99.90
11848;DHT22;5983;49.966;8.052;2023-03-04T00:11:38;2.30;99.90
11848;DHT22;5983;49.966;8.052;2023-03-04T00:14:05;2.30;99.90
11848;DHT22;5983;49.966;8.052;2023-03-04T00:16:32;2.20;99.90
11848;DHT22;5983;49.966;8.052;2023-03-04T00:18:59;2.10;99.90
11848;DHT22;5983;49.966;8.052;2023-03-04T00:21:25;2.10;99.90
11848;DHT22;5983;49.966;8.052;2023-03-04T00:23:54;2.10;99.90
11848;DHT22;5983;49.966;8.052;2023-03-04T00:26:21;2.00;99.90
11848;DHT22;5983;49.966;8.052;2023-03-04T00:28:49;1.90;99.90
11848;DHT22;5983;49.966;8.052;2023-03-04T00:31:16;1.80;99.90
11848;DHT22;5983;49.966;8.052;2023-03-04T00:33:43;1.80;99.90
11848;DHT22;5983;49.966;8.052;2023-03-04T00:36:10;1.80;99.90
11848;DHT22;5983;49.966;8.052;2023-03-04T00:38:37;1.70;99.90
11848;DHT22;5983;49.966;8.052;2023-03-04T00:41:05;1.70;99.90
11848;DHT22;5983;49.966;8.052;2023-03-04T00:43:32;1.60;99.90
11848;DHT22;5983;49.966;8.052;2023-03-04T00:45:59;1.50;99.90
11848;DHT22;5983;49.966;8.052;2023-03-04T00:48:26;1.50;99.90
11848;DHT22;5983;49.966;8.052;2023-03-04T00:50:53;1.40;99.90
11848;DHT22;5983;49.966;8.052;2023-03-04T00:53:20;1.30;99.90
11848;DHT22;5983;49.966;8.052;2023-03-04T00:55:48;1.30;99.90
11848;DHT22;5983;49.966;8.052;2023-03-04T00:58:16;1.30;99.90
11848;DHT22;5983;49.966;8.052;2023-03-04T01:00:43;1.30;99.90
11848;DHT22;5983;49.966;8.052;2023-03-04T01:03:10;1.20;99.90
11848;DHT22;5983;49.966;8.052;2023-03-04T01:05:37;1.20;99.90
11848;DHT22;5983;49.966;8.052;2023-03-04T01:08:05;1.10;99.90
11848;DHT22;5983;49.966;8.052;2023-03-04T01:10:32;1.10;99.90
11848;DHT22;5983;49.966;8.052;2023-03-04T01:12:59;1.00;99.90
11848;DHT22;5983;49.966;8.052;2023-03-04T01:15:28;0.90;99.90
11848;DHT22;5983;49.966;8.052;2023-03-04T01:17:55;0.90;99.90
11848;DHT22;5983;49.966;8.052;2023-03-04T01:20:22;0.80;99.90
11848;DHT22;5983;49.966;8.052;2023-03-04T01:22:50;0.80;99.90
11848;DHT22;5983;49.966;8.052;2023-03-04T01:25:17;0.70;99.90
11848;DHT22;5983;49.966;8.052;2023-03-04T01:27:44;0.70;99.90
11848;DHT22;5983;49.966;8.052;2023-03-04T01:30:11;0.70;99.90
11848;DHT22;5983;49.966;8.052;2023-03-04T01:32:40;0.70;99.90
11848;DHT22;5983;49.966;8.052;2023-03-04T01:35:07;0.70;99.90
11848;DHT22;5983;49.966;8.052;2023-03-04T01:37:35;0.70;99.90
11848;DHT22;5983;49.966;8.052;2023-03-04T01:40:02;0.60;99.90
11848;DHT22;5983;49.966;8.052;2023-03-04T01:42:33;0.60;99.90
11848;DHT22;5983;49.966;8.052;2023-03-04T01:45:02;0.50;99.90
11848;DHT22;5983;49.966;8.052;2023-03-04T01:47:32;0.50;99.90
11848;DHT22;5983;49.966;8.052;2023-03-04T01:50:10;0.50;99.90
11848;DHT22;5983;49.966;8.052;2023-03-04T01:52:44;0.50;99.90
11848;DHT22;5983;49.966;8.052;2023-03-04T01:55:15;0.50;99.90
11848;DHT22;5983;49.966;8.052;2023-03-04T01:57:45;0.50;99.90
11848;DHT22;5983;49.966;8.052;2023-03-04T02:00:24;0.50;99.90
11848;DHT22;5983;49.966;8.052;2023-03-04T02:02:57;0.50;99.90
11848;DHT22;5983;49.966;8.052;2023-03-04T02:05:28;0.40;99.90
11848;DHT22;5983;49.966;8.052;2023-03-04T02:07:57;0.40;99.90
11848;DHT22;5983;49.966;8.052;2023-03-04T02:10:26;0.40;99.90
11848;DHT22;5983;49.966;8.052;2023-03-04T02:12:54;0.40;99.90
11848;DHT22;5983;49.966;8.052;2023-03-04T02:15:22;0.30;99.90
11848;DHT22;5983;49.966;8.052;2023-03-04T02:17:50;0.20;99.90
11848;DHT22;5983;49.966;8.052;2023-03-04T02:20:33;0.20;99.90
11848;DHT22;5983;49.966;8.052;2023-03-04T02:23:13;0.10;99.90
11848;DHT22;5983;49.966;8.052;2023-03-04T02:25:46;0.10;99.90
11848;DHT22;5983;49.966;8.052;2023-03-04T02:28:17;0.00;99.90
11848;DHT22;5983;49.966;8.052;2023-03-04T02:30:45;-0.10;99.90
11848;DHT22;5983;49.966;8.052;2023-03-04T02:33:16;-0.20;99.90
11848;DHT22;5983;49.966;8.052;2023-03-04T02:35:44;-0.30;99.90
11848;DHT22;5983;49.966;8.052;2023-03-04T02:38:12;-0.20;99.90
11848;DHT22;5983;49.966;8.052;2023-03-04T02:40:42;-0.20;99.90
11848;DHT22;5983;49.966;8.052;2023-03-04T02:43:12;-0.20;99.90
11848;DHT22;5983;49.966;8.052;2023-03-04T02:45:43;-0.20;99.90
11848;DHT22;5983;49.966;8.052;2023-03-04T02:48:13;-0.20;99.90
11848;DHT22;5983;49.966;8.052;2023-03-04T02:50:45;-0.40;99.90
11848;DHT22;5983;49.966;8.052;2023-03-04T02:53:14;-0.40;99.90
11848;DHT22;5983;49.966;8.052;2023-03-04T02:55:41;-0.50;99.90
11848;DHT22;5983;49.966;8.052;2023-03-04T02:58:09;-0.50;99.90
11848;DHT22;5983;49.966;8.052;2023-03-04T03:00:37;-0.50;99.90
11848;DHT22;5983;49.966;8.052;2023-03-04T03:03:06;-0.50;99.90
11848;DHT22;5983;49.966;8.052;2023-03-04T03:05:33;-0.50;99.90
11848;DHT22;5983;49.966;8.052;2023-03-04T03:08:01;-0.50;99.90
11848;DHT22;5983;49.966;8.052;2023-03-04T03:10:29;-0.50;99.90
11848;DHT22;5983;49.966;8.052;2023-03-04T03:12:56;-0.50;99.90
11848;DHT22;5983;49.966;8.052;2023-03-04T03:15:23;-0.40;99.90
11848;DHT22;5983;49.966;8.052;2023-03-04T03:17:50;-0.40;99.90
11848;DHT22;5983;49.966;8.052;2023-03-04T03:20:19;-0.40;99.90
11848;DHT22;5983;49.966;8.052;2023-03-04T03:22:46;-0.40;99.90
11848;DHT22;5983;49.966;8.052;2023-03-04T03:25:14;-0.40;99.90
11848;DHT22;5983;49.966;8.052;2023-03-04T03:27:42;-0.50;99.90
11848;DHT22;5983;49.966;8.052;2023-03-04T03:30:11;-0.50;99.90
11848;DHT22;5983;49.966;8.052;2023-03-04T03:32:39;-0.50;99.90
11848;DHT22;5983;49.966;8.052;2023-03-04T03:35:06;-0.60;99.90
11848;DHT22;5983;49.966;8.052;2023-03-04T03:37:36;-0.60;99.90
11848;DHT22;5983;49.966;8.052;2023-03-04T03:40:04;-0.70;99.90
11848;DHT22;5983;49.966;8.052;2023-03-04T03:42:32;-0.60;99.90
11848;DHT22;5983;49.966;8.052;2023-03-04T03:44:58;-0.60;99.90
11848;DHT22;5983;49.966;8.052;2023-03-04T03:47:26;-0.50;99.90
11848;DHT22;5983;49.966;8.052;2023-03-04T03:49:53;-0.50;99.90
11848;DHT22;5983;49.966;8.052;2023-03-04T03:52:20;-0.50;99.90
11848;DHT22;5983;49.966;8.052;2023-03-04T03:54:48;-0.40;99.90
11848;DHT22;5983;49.966;8.052;2023-03-04T03:57:15;-0.40;99.90
11848;DHT22;5983;49.966;8.052;2023-03-04T03:59:42;-0.40;99.90
11848;DHT22;5983;49.966;8.052;2023-03-04T04:02:09;-0.30;99.90
11848;DHT22;5983;49.966;8.052;2023-03-04T04:04:36;-0.30;99.90
11848;DHT22;5983;49.966;8.052;2023-03-04T04:07:02;-0.40;99.90
11848;DHT22;5983;49.966;8.052;2023-03-04T04:09:29;-0.30;99.90
11848;DHT22;5983;49.966;8.052;2023-03-04T04:11:58;-0.30;99.90
11848;DHT22;5983;49.966;8.052;2023-03-04T04:14:25;-0.30;99.90
11848;DHT22;5983;49.966;8.052;2023-03-04T04:16:52;-0.30;99.90
11848;DHT22;5983;49.966;8.052;2023-03-04T04:19:19;-0.30;99.90
11848;DHT22;5983;49.966;8.052;2023-03-04T04:21:46;-0.20;99.90
11848;DHT22;5983;49.966;8.052;2023-03-04T04:24:14;-0.20;99.90
11848;DHT22;5983;49.966;8.052;2023-03-04T04:26:41;-0.20;99.90
11848;DHT22;5983;49.966;8.052;2023-03-04T04:29:12;-0.30;99.90
11848;DHT22;5983;49.966;8.052;2023-03-04T04:31:40;-0.40;99.90
11848;DHT22;5983;49.966;8.052;2023-03-04T04:34:07;-0.40;99.90
11848;DHT22;5983;49.966;8.052;2023-03-04T04:36:35;-0.30;99.90
11848;DHT22;5983;49.966;8.052;2023-03-04T04:39:02;-0.30;99.90
11848;DHT22;5983;49.966;8.052;2023-03-04T04:41:33;-0.30;99.90
11848;DHT22;5983;49.966;8.052;2023-03-04T04:44:02;-0.20;99.90
11848;DHT22;5983;49.966;8.052;2023-03-04T04:46:31;-0.20;99.90
11848;DHT22;5983;49.966;8.052;2023-03-04T04:48:58;-0.20;99.90
11848;DHT22;5983;49.966;8.052;2023-03-04T04:51:25;-0.20;99.90
11848;DHT22;5983;49.966;8.052;2023-03-04T04:53:53;-0.20;99.90
11848;DHT22;5983;49.966;8.052;2023-03-04T04:56:21;-0.20;99.90
11848;DHT22;5983;49.966;8.052;2023-03-04T04:58:51;-0.20;99.90
11848;DHT22;5983;49.966;8.052;2023-03-04T05:01:19;-0.10;99.90
11848;DHT22;5983;49.966;8.052;2023-03-04T05:03:48;-0.10;99.90
11848;DHT22;5983;49.966;8.052;2023-03-04T05:06:18;0.00;99.90
11848;DHT22;5983;49.966;8.052;2023-03-04T05:08:45;0.00;99.90
11848;DHT22;5983;49.966;8.052;2023-03-04T05:11:12;0.00;99.90
11848;DHT22;5983;49.966;8.052;2023-03-04T05:13:40;0.10;99.90
11848;DHT22;5983;49.966;8.052;2023-03-04T05:16:07;0.20;99.90
11848;DHT22;5983;49.966;8.052;2023-03-04T05:18:35;0.30;99.90
11848;DHT22;5983;49.966;8.052;2023-03-04T05:21:03;0.40;99.90
11848;DHT22;5983;49.966;8.052;2023-03-04T05:23:33;0.40;99.90
11848;DHT22;5983;49.966;8.052;2023-03-04T05:26:01;0.40;99.90
11848;DHT22;5983;49.966;8.052;2023-03-04T05:28:29;0.40;99.90
11848;DHT22;5983;49.966;8.052;2023-03-04T05:30:56;0.40;99.90
11848;DHT22;5983;49.966;8.052;2023-03-04T05:33:23;0.50;99.90
11848;DHT22;5983;49.966;8.052;2023-03-04T05:35:50;0.50;99.90
11848;DHT22;5983;49.966;8.052;2023-03-04T05:38:21;0.60;99.90
11848;DHT22;5983;49.966;8.052;2023-03-04T05:40:49;0.60;99.90
11848;DHT22;5983;49.966;8.052;2023-03-04T05:43:20;0.60;99.90
11848;DHT22;5983;49.966;8.052;2023-03-04T05:45:48;0.60;99.90
11848;DHT22;5983;49.966;8.052;2023-03-04T05:48:15;0.50;99.90
11848;DHT22;5983;49.966;8.052;2023-03-04T05:50:42;0.60;99.90
11848;DHT22;5983;49.966;8.052;2023-03-04T05:53:09;0.60;99.90
11848;DHT22;5983;49.966;8.052;2023-03-04T05:55:38;0.50;99.90
11848;DHT22;5983;49.966;8.052;2023-03-04T05:58:05;0.50;99.90
11848;DHT22;5983;49.966;8.052;2023-03-04T06:00:32;0.60;99.90
11848;DHT22;5983;49.966;8.052;2023-03-04T06:02:59;0.60;99.90
11848;DHT22;5983;49.966;8.052;2023-03-04T06:05:26;0.60;99.90
11848;DHT22;5983;49.966;8.052;2023-03-04T06:07:52;0.70;99.90
11848;DHT22;5983;49.966;8.052;2023-03-04T06:10:20;0.70;99.90
11848;DHT22;5983;49.966;8.052;2023-03-04T06:12:48;0.80;99.90
11848;DHT22;5983;49.966;8.052;2023-03-04T06:15:15;0.80;99.90
11848;DHT22;5983;49.966;8.052;2023-03-04T06:17:42;0.90;99.90
11848;DHT22;5983;49.966;8.052;2023-03-04T06:20:10;0.90;99.90
11848;DHT22;5983;49.966;8.052;2023-03-04T06:22:38;0.90;99.90
11848;DHT22;5983;49.966;8.052;2023-03-04T06:25:06;1.00;99.90
11848;DHT22;5983;49.966;8.052;2023-03-04T06:27:34;1.10;99.90
11848;DHT22;5983;49.966;8.052;2023-03-04T06:30:05;1.10;99.90
11848;DHT22;5983;49.966;8.052;2023-03-04T06:32:32;1.20;99.90
11848;DHT22;5983;49.966;8.052;2023-03-04T06:34:59;1.20;99.90
11848;DHT22;5983;49.966;8.052;2023-03-04T06:37:26;1.20;99.90
11848;DHT22;5983;49.966;8.052;2023-03-04T06:39:53;1.20;99.90
11848;DHT22;5983;49.966;8.052;2023-03-04T06:42:20;1.20;99.90
11848;DHT22;5983;49.966;8.052;2023-03-04T06:44:47;1.20;99.90
11848;DHT22;5983;49.966;8.052;2023-03-04T06:47:16;1.20;99.90
11848;DHT22;5983;49.966;8.052;2023-03-04T06:49:43;1.30;99.90
11848;DHT22;5983;49.966;8.052;2023-03-04T06:52:11;1.40;99.90
11848;DHT22;5983;49.966;8.052;2023-03-04T06:54:38;1.40;99.90
11848;DHT22;5983;49.966;8.052;2023-03-04T06:57:05;1.50;99.90
11848;DHT22;5983;49.966;8.052;2023-03-04T06:59:33;1.50;99.90
11848;DHT22;5983;49.966;8.052;2023-03-04T07:02:00;1.60;99.90
11848;DHT22;5983;49.966;8.052;2023-03-04T07:04:29;1.60;99.90
11848;DHT22;5983;49.966;8.052;2023-03-04T07:06:56;1.70;99.90
11848;DHT22;5983;49.966;8.052;2023-03-04T07:09:23;1.70;99.90
11848;DHT22;5983;49.966;8.052;2023-03-04T07:11:50;1.80;99.90
11848;DHT22;5983;49.966;8.052;2023-03-04T07:14:17;1.80;99.90
11848;DHT22;5983;49.966;8.052;2023-03-04T07:16:44;1.90;99.90
11848;DHT22;5983;49.966;8.052;2023-03-04T07:19:10;2.00;99.90
11848;DHT22;5983;49.966;8.052;2023-03-04T07:21:39;2.00;99.90
11848;DHT22;5983;49.966;8.052;2023-03-04T07:24:06;2.10;99.90
11848;DHT22;5983;49.966;8.052;2023-03-04T07:26:33;2.20;99.90
11848;DHT22;5983;49.966;8.052;2023-03-04T07:29:02;2.20;99.90
11848;DHT22;5983;49.966;8.052;2023-03-04T07:31:31;2.30;99.90
11848;DHT22;5983;49.966;8.052;2023-03-04T07:34:00;2.40;99.90
11848;DHT22;5983;49.966;8.052;2023-03-04T07:36:29;2.40;99.90
11848;DHT22;5983;49.966;8.052;2023-03-04T07:38:57;2.50;99.90
11848;DHT22;5983;49.966;8.052;2023-03-04T07:41:25;2.50;99.90
11848;DHT22;5983;49.966;8.052;2023-03-04T07:43:55;2.60;99.90
11848;DHT22;5983;49.966;8.052;2023-03-04T07:46:23;2.70;99.90
11848;DHT22;5983;49.966;8.052;2023-03-04T07:48:50;2.80;99.90
11848;DHT22;5983;49.966;8.052;2023-03-04T07:51:19;2.90;99.90
11848;DHT22;5983;49.966;8.052;2023-03-04T07:53:52;3.00;99.90
11848;DHT22;5983;49.966;8.052;2023-03-04T07:56:24;3.10;99.90
11848;DHT22;5983;49.966;8.052;2023-03-04T07:58:53;3.20;99.90
11848;DHT22;5983;49.966;8.052;2023-03-04T08:01:22;3.30;99.90
11848;DHT22;5983;49.966;8.052;2023-03-04T08:03:51;3.30;99.90
11848;DHT22;5983;49.966;8.052;2023-03-04T08:06:19;3.40;99.90
11848;DHT22;5983;49.966;8.052;2023-03-04T08:08:48;3.50;99.90
11848;DHT22;5983;49.966;8.052;2023-03-04T08:11:17;3.60;99.90
11848;DHT22;5983;49.966;8.052;2023-03-04T08:13:47;3.70;99.90
11848;DHT22;5983;49.966;8.052;2023-03-04T08:16:16;3.70;99.90
11848;DHT22;5983;49.966;8.052;2023-03-04T08:18:46;3.80;99.90
11848;DHT22;5983;49.966;8.052;2023-03-04T08:21:16;3.90;99.90
11848;DHT22;5983;49.966;8.052;2023-03-04T08:23:45;3.90;99.90
11848;DHT22;5983;49.966;8.052;2023-03-04T08:26:15;4.00;99.90
11848;DHT22;5983;49.966;8.052;2023-03-04T08:28:44;4.00;99.90
11848;DHT22;5983;49.966;8.052;2023-03-04T08:31:13;4.10;99.90
11848;DHT22;5983;49.966;8.052;2023-03-04T08:33:42;4.10;99.90
11848;DHT22;5983;49.966;8.052;2023-03-04T08:36:10;4.20;99.90
11848;DHT22;5983;49.966;8.052;2023-03-04T08:38:38;4.20;99.90
11848;DHT22;5983;49.966;8.052;2023-03-04T08:41:05;4.20;99.90
11848;DHT22;5983;49.966;8.052;2023-03-04T08:43:32;4.30;99.90
11848;DHT22;5983;49.966;8.052;2023-03-04T08:46:00;4.30;99.90
11848;DHT22;5983;49.966;8.052;2023-03-04T08:48:29;4.40;99.90
11848;DHT22;5983;49.966;8.052;2023-03-04T08:50:56;4.40;99.90
11848;DHT22;5983;49.966;8.052;2023-03-04T08:53:23;4.40;99.90
11848;DHT22;5983;49.966;8.052;2023-03-04T08:55:51;4.40;99.90
11848;DHT22;5983;49.966;8.052;2023-03-04T08:58:18;4.50;99.90
11848;DHT22;5983;49.966;8.052;2023-03-04T09:00:47;4.50;99.90
11848;DHT22;5983;49.966;8.052;2023-03-04T09:03:16;4.60;99.90
11848;DHT22;5983;49.966;8.052;2023-03-04T09:05:47;4.60;99.90
11848;DHT22;5983;49.966;8.052;2023-03-04T09:08:15;4.60;99.90
11848;DHT22;5983;49.966;8.052;2023-03-04T09:10:43;4.70;99.90
11848;DHT22;5983;49.966;8.052;2023-03-04T09:13:11;4.70;99.90
11848;DHT22;5983;49.966;8.052;2023-03-04T09:15:43;4.80;99.90
11848;DHT22;5983;49.966;8.052;2023-03-04T09:18:11;4.80;99.90
11848;DHT22;5983;49.966;8.052;2023-03-04T09:20:38;4.80;99.90
11848;DHT22;5983;49.966;8.052;2023-03-04T09:23:07;4.80;99.90
11848;DHT22;5983;49.966;8.052;2023-03-04T09:25:34;4.90;99.90
11848;DHT22;5983;49.966;8.052;2023-03-04T09:28:03;4.90;99.90
11848;DHT22;5983;49.966;8.052;2023-03-04T09:30:31;5.00;99.90
11848;DHT22;5983;49.966;8.052;2023-03-04T09:32:58;5.00;99.90
11848;DHT22;5983;49.966;8.052;2023-03-04T09:35:25;5.10;99.90
11848;DHT22;5983;49.966;8.052;2023-03-04T09:37:54;5.10;99.90
11848;DHT22;5983;49.966;8.052;2023-03-04T09:40:26;5.10;99.90
11848;DHT22;5983;49.966;8.052;2023-03-04T09:42:57;5.10;99.90
11848;DHT22;5983;49.966;8.052;2023-03-04T09:45:33;5.10;99.90
11848;DHT22;5983;49.966;8.052;2023-03-04T09:48:05;5.20;99.90
11848;DHT22;5983;49.966;8.052;2023-03-04T09:50:38;5.20;99.90
11848;DHT22;5983;49.966;8.052;2023-03-04T09:53:19;5.20;99.90
11848;DHT22;5983;49.966;8.052;2023-03-04T09:55:51;5.30;99.90
11848;DHT22;5983;49.966;8.052;2023-03-04T09:58:29;5.30;99.90
11848;DHT22;5983;49.966;8.052;2023-03-04T10:01:09;5.40;99.90
11848;DHT22;5983;49.966;8.052;2023-03-04T10:03:44;5.40;99.90
11848;DHT22;5983;49.966;8.052;2023-03-04T10:06:17;5.40;99.90
11848;DHT22;5983;49.966;8.052;2023-03-04T10:08:50;5.50;99.90
11848;DHT22;5983;49.966;8.052;2023-03-04T10:11:26;5.50;99.90
11848;DHT22;5983;49.966;8.052;2023-03-04T10:14:03;5.60;99.90
11848;DHT22;5983;49.966;8.052;2023-03-04T10:16:39;5.60;99.90
11848;DHT22;5983;49.966;8.052;2023-03-04T10:19:37;5.70;99.90
11848;DHT22;5983;49.966;8.052;2023-03-04T10:22:18;5.70;99.90
11848;DHT22;5983;49.966;8.052;2023-03-04T10:24:52;5.70;99.90
11848;DHT22;5983;49.966;8.052;2023-03-04T10:27:23;5.80;99.90
11848;DHT22;5983;49.966;8.052;2023-03-04T10:29:51;5.80;99.90
11848;DHT22;5983;49.966;8.052;2023-03-04T10:32:19;5.80;99.90
11848;DHT22;5983;49.966;8.052;2023-03-04T10:34:46;5.90;99.90
11848;DHT22;5983;49.966;8.052;2023-03-04T10:37:13;5.90;99.90
11848;DHT22;5983;49.966;8.052;2023-03-04T10:39:42;5.90;99.90
11848;DHT22;5983;49.966;8.052;2023-03-04T10:42:27;5.90;99.90
11848;DHT22;5983;49.966;8.052;2023-03-04T10:45:01;6.00;99.90
11848;DHT22;5983;49.966;8.052;2023-03-04T10:47:30;5.90;99.90
11848;DHT22;5983;49.966;8.052;2023-03-04T10:50:01;6.00;99.90
11848;DHT22;5983;49.966;8.052;2023-03-04T10:52:32;6.00;99.90
11848;DHT22;5983;49.966;8.052;2023-03-04T10:55:04;6.00;99.90
11848;DHT22;5983;49.966;8.052;2023-03-04T10:57:42;6.00;99.90
11848;DHT22;5983;49.966;8.052;2023-03-04T11:00:35;6.10;99.90
11848;DHT22;5983;49.966;8.052;2023-03-04T11:03:24;6.10;99.90
11848;DHT22;5983;49.966;8.052;2023-03-04T11:06:19;6.10;99.90
11848;DHT22;5983;49.966;8.052;2023-03-04T11:08:54;6.10;99.90
11848;DHT22;5983;49.966;8.052;2023-03-04T11:11:24;6.00;99.90
11848;DHT22;5983;49.966;8.052;2023-03-04T11:14:03;6.10;99.90
11848;DHT22;5983;49.966;8.052;2023-03-04T11:16:40;6.10;99.90
11848;DHT22;5983;49.966;8.052;2023-03-04T11:19:19;6.10;99.90
11848;DHT22;5983;49.966;8.052;2023-03-04T11:21:51;6.10;99.90
11848;DHT22;5983;49.966;8.052;2023-03-04T11:24:22;6.10;99.90
11848;DHT22;5983;49.966;8.052;2023-03-04T11:26:55;6.10;99.90
11848;DHT22;5983;49.966;8.052;2023-03-04T11:29:31;6.10;99.90
11848;DHT22;5983;49.966;8.052;2023-03-04T11:32:08;6.10;99.90
11848;DHT22;5983;49.966;8.052;2023-03-04T11:34:43;6.20;99.90
11848;DHT22;5983;49.966;8.052;2023-03-04T11:37:20;6.20;99.90
11848;DHT22;5983;49.966;8.052;2023-03-04T11:39:54;6.20;99.90
11848;DHT22;5983;49.966;8.052;2023-03-04T11:42:31;6.20;99.90
11848;DHT22;5983;49.966;8.052;2023-03-04T11:45:11;6.20;99.90
11848;DHT22;5983;49.966;8.052;2023-03-04T11:47:57;6.20;99.90
11848;DHT22;5983;49.966;8.052;2023-03-04T11:50:34;6.10;99.90
11848;DHT22;5983;49.966;8.052;2023-03-04T11:53:24;6.20;99.90
11848;DHT22;5983;49.966;8.052;2023-03-04T11:56:14;6.10;99.90
11848;DHT22;5983;49.966;8.052;2023-03-04T12:05:14;6.20;99.90
11848;DHT22;5983;49.966;8.052;2023-03-04T12:08:22;6.20;99.90
11848;DHT22;5983;49.966;8.052;2023-03-04T12:11:01;6.10;99.90
11848;DHT22;5983;49.966;8.052;2023-03-04T12:13:47;6.20;99.90
11848;DHT22;5983;49.966;8.052;2023-03-04T12:16:47;6.20;99.90
11848;DHT22;5983;49.966;8.052;2023-03-04T12:19:43;6.20;99.90
11848;DHT22;5983;49.966;8.052;2023-03-04T12:22:31;6.20;99.90
11848;DHT22;5983;49.966;8.052;2023-03-04T12:25:14;6.30;99.90
11848;DHT22;5983;49.966;8.052;2023-03-04T12:27:55;6.30;99.90
11848;DHT22;5983;49.966;8.052;2023-03-04T12:30:45;6.40;99.90
11848;DHT22;5983;49.966;8.052;2023-03-04T12:33:26;6.50;99.90
11848;DHT22;5983;49.966;8.052;2023-03-04T12:36:11;6.60;99.90
11848;DHT22;5983;49.966;8.052;2023-03-04T12:38:59;6.60;99.90
11848;DHT22;5983;49.966;8.052;2023-03-04T12:41:40;6.60;99.90
11848;DHT22;5983;49.966;8.052;2023-03-04T12:44:15;6.70;99.90
11848;DHT22;5983;49.966;8.052;2023-03-04T12:47:09;6.70;99.90
11848;DHT22;5983;49.966;8.052;2023-03-04T12:49:53;6.80;99.90
11848;DHT22;5983;49.966;8.052;2023-03-04T12:52:38;7.00;99.90
11848;DHT22;5983;49.966;8.052;2023-03-04T12:55:13;7.20;99.90
11848;DHT22;5983;49.966;8.052;2023-03-04T12:57:42;7.30;99.90
11848;DHT22;5983;49.966;8.052;2023-03-04T13:00:19;7.30;99.90
11848;DHT22;5983;49.966;8.052;2023-03-04T13:03:05;7.40;99.90
11848;DHT22;5983;49.966;8.052;2023-03-04T13:05:49;7.40;99.90
11848;DHT22;5983;49.966;8.052;2023-03-04T13:08:35;7.40;99.90
11848;DHT22;5983;49.966;8.052;2023-03-04T13:11:42;7.40;99.90
11848;DHT22;5983;49.966;8.052;2023-03-04T13:14:24;7.40;99.90
11848;DHT22;5983;49.966;8.052;2023-03-04T13:16:54;7.40;99.90
11848;DHT22;5983;49.966;8.052;2023-03-04T13:19:48;7.40;99.90
11848;DHT22;5983;49.966;8.052;2023-03-04T13:22:28;7.40;99.90
11848;DHT22;5983;49.966;8.052;2023-03-04T13:25:26;7.40;99.90
11848;DHT22;5983;49.966;8.052;2023-03-04T13:28:20;7.50;99.90
11848;DHT22;5983;49.966;8.052;2023-03-04T13:31:14;7.50;99.90
11848;DHT22;5983;49.966;8.052;2023-03-04T13:33:57;7.50;99.90
11848;DHT22;5983;49.966;8.052;2023-03-04T13:39:33;7.50;99.90
11848;DHT22;5983;49.966;8.052;2023-03-04T13:42:03;7.60;99.90
11848;DHT22;5983;49.966;8.052;2023-03-04T13:44:56;7.60;99.90
11848;DHT22;5983;49.966;8.052;2023-03-04T13:47:46;7.60;99.90
11848;DHT22;5983;49.966;8.052;2023-03-04T13:50:39;7.60;99.90
11848;DHT22;5983;49.966;8.052;2023-03-04T13:53:36;7.60;99.90
11848;DHT22;5983;49.966;8.052;2023-03-04T13:56:39;7.60;99.90
11848;DHT22;5983;49.966;8.052;2023-03-04T13:59:24;7.60;99.90
11848;DHT22;5983;49.966;8.052;2023-03-04T14:01:59;7.60;99.90
11848;DHT22;5983;49.966;8.052;2023-03-04T14:04:30;7.60;99.90
11848;DHT22;5983;49.966;8.052;2023-03-04T14:07:02;7.50;99.90
11848;DHT22;5983;49.966;8.052;2023-03-04T14:09:53;7.50;99.90
11848;DHT22;5983;49.966;8.052;2023-03-04T14:12:22;7.50;99.90
11848;DHT22;5983;49.966;8.052;2023-03-04T14:14:54;7.50;99.90
11848;DHT22;5983;49.966;8.052;2023-03-04T14:17:28;7.50;99.90
11848;DHT22;5983;49.966;8.052;2023-03-04T14:19:58;7.50;99.90
11848;DHT22;5983;49.966;8.052;2023-03-04T14:22:28;7.50;99.90
11848;DHT22;5983;49.966;8.052;2023-03-04T14:24:59;7.40;99.90
11848;DHT22;5983;49.966;8.052;2023-03-04T14:27:29;7.40;99.90
11848;DHT22;5983;49.966;8.052;2023-03-04T14:30:00;7.30;99.90
11848;DHT22;5983;49.966;8.052;2023-03-04T14:32:29;7.30;99.90
11848;DHT22;5983;49.966;8.052;2023-03-04T14:35:00;7.30;99.90
11848;DHT22;5983;49.966;8.052;2023-03-04T14:37:36;7.30;99.90
11848;DHT22;5983;49.966;8.052;2023-03-04T14:40:17;7.30;99.90
11848;DHT22;5983;49.966;8.052;2023-03-04T14:42:47;7.30;99.90
11848;DHT22;5983;49.966;8.052;2023-03-04T14:45:21;7.30;99.90
11848;DHT22;5983;49.966;8.052;2023-03-04T14:47:52;7.20;99.90
11848;DHT22;5983;49.966;8.052;2023-03-04T14:50:21;7.30;99.90
11848;DHT22;5983;49.966;8.052;2023-03-04T14:52:50;7.30;99.90
11848;DHT22;5983;49.966;8.052;2023-03-04T14:55:38;7.30;99.90
11848;DHT22;5983;49.966;8.052;2023-03-04T14:58:07;7.30;99.90
11848;DHT22;5983;49.966;8.052;2023-03-04T15:00:37;7.30;99.90
11848;DHT22;5983;49.966;8.052;2023-03-04T15:03:18;7.30;99.90
11848;DHT22;5983;49.966;8.052;2023-03-04T15:05:46;7.30;99.90
11848;DHT22;5983;49.966;8.052;2023-03-04T15:08:20;7.30;99.90
11848;DHT22;5983;49.966;8.052;2023-03-04T15:10:53;7.20;99.90
11848;DHT22;5983;49.966;8.052;2023-03-04T15:13:37;7.20;99.90
11848;DHT22;5983;49.966;8.052;2023-03-04T15:16:07;7.20;99.90
11848;DHT22;5983;49.966;8.052;2023-03-04T15:18:35;7.20;99.90
11848;DHT22;5983;49.966;8.052;2023-03-04T15:21:04;7.20;99.90
11848;DHT22;5983;49.966;8.052;2023-03-04T15:23:51;7.20;99.90
11848;DHT22;5983;49.966;8.052;2023-03-04T15:26:18;7.20;99.90
11848;DHT22;5983;49.966;8.052;2023-03-04T15:28:46;7.20;99.90
11848;DHT22;5983;49.966;8.052;2023-03-04T15:31:16;7.20;99.90
11848;DHT22;5983;49.966;8.052;2023-03-04T15:33:45;7.20;99.90
11848;DHT22;5983;49.966;8.052;2023-03-04T15:36:14;7.20;99.90
11848;DHT22;5983;49.966;8.052;2023-03-04T15:38:44;7.20;99.90
11848;DHT22;5983;49.966;8.052;2023-03-04T15:41:17;7.20;99.90
11848;DHT22;5983;49.966;8.052;2023-03-04T15:43:47;7.20;99.90
11848;DHT22;5983;49.966;8.052;2023-03-04T15:46:16;7.20;99.90
11848;DHT22;5983;49.966;8.052;2023-03-04T15:48:43;7.20;99.90
11848;DHT22;5983;49.966;8.052;2023-03-04T15:51:13;7.20;99.90
11848;DHT22;5983;49.966;8.052;2023-03-04T15:53:44;7.20;99.90
11848;DHT22;5983;49.966;8.052;2023-03-04T15:56:14;7.10;99.90
11848;DHT22;5983;49.966;8.052;2023-03-04T15:58:47;7.10;99.90
11848;DHT22;5983;49.966;8.052;2023-03-04T16:01:21;7.10;99.90
11848;DHT22;5983;49.966;8.052;2023-03-04T16:03:49;7.10;99.90
11848;DHT22;5983;49.966;8.052;2023-03-04T16:06:28;7.10;99.90
11848;DHT22;5983;49.966;8.052;2023-03-04T16:08:57;7.00;99.90
11848;DHT22;5983;49.966;8.052;2023-03-04T16:11:27;7.00;99.90
11848;DHT22;5983;49.966;8.052;2023-03-04T16:13:56;7.00;99.90
11848;DHT22;5983;49.966;8.052;2023-03-04T16:16:24;6.90;99.90
11848;DHT22;5983;49.966;8.052;2023-03-04T16:18:51;6.90;99.90
11848;DHT22;5983;49.966;8.052;2023-03-04T16:21:19;6.90;99.90
11848;DHT22;5983;49.966;8.052;2023-03-04T16:23:49;6.90;99.90
11848;DHT22;5983;49.966;8.052;2023-03-04T16:26:20;6.90;99.90
11848;DHT22;5983;49.966;8.052;2023-03-04T16:28:48;6.80;99.90
11848;DHT22;5983;49.966;8.052;2023-03-04T16:31:16;6.80;99.90
11848;DHT22;5983;49.966;8.052;2023-03-04T16:33:45;6.80;99.90
11848;DHT22;5983;49.966;8.052;2023-03-04T16:36:14;6.80;99.90
11848;DHT22;5983;49.966;8.052;2023-03-04T16:38:44;6.80;99.90